Time;durP1;ratioP1;P1;durP2;ratioP2;P2;SDS_P1;SDS_P2;PMS_P1;PMS_P2;Temp;Humidity;BMP_temperature;BMP_pressure;BME280_temperature;BME280_humidity;BME280_pressure;Samples;Min_cycle;Max_cycle;Signal;HPM_P1;HPM_P2
2023/07/27 00:00:25;;;;;;;;;;;14.20;69.50;;;;;;4145530;28;19917;-85
2023/07/27 00:02:26;;;;;;;;;;;14.20;69.30;;;;;;4143710;28;19913;-86
2023/07/27 00:04:29;;;;;;;;;;;14.30;70.00;;;;;;4141830;28;20364;-84
2023/07/27 00:06:32;;;;;;;;;;;14.20;71.40;;;;;;4129562;28;19922;-84
2023/07/27 00:08:39;;;;;;;;;;;14.20;70.50;;;;;;4142982;28;20419;-84
2023/07/27 00:10:40;;;;;;;;;;;14.20;70.00;;;;;;4132302;28;19913;-84
2023/07/27 00:12:41;;;;;;;;;;;14.20;70.30;;;;;;4136995;28;19921;-84
2023/07/27 00:14:47;;;;;;;;;;;14.20;70.30;;;;;;4144617;28;20364;-84
2023/07/27 00:16:53;;;;;;;;;;;14.20;70.30;;;;;;4144970;28;20023;-84
2023/07/27 00:18:54;;;;;;;;;;;14.10;69.60;;;;;;4145633;28;19913;-85
2023/07/27 00:20:57;;;;;;;;;;;14.10;70.20;;;;;;4127128;28;20750;-84
2023/07/27 00:22:58;;;;;;;;;;;14.10;70.90;;;;;;4139740;28;19924;-85
2023/07/27 00:25:04;;;;;;;;;;;14.10;70.60;;;;;;4122149;28;19937;-84
2023/07/27 00:27:12;;;;;;;;;;;14.00;70.20;;;;;;4126669;28;19956;-85
2023/07/27 00:29:13;;;;;;;;;;;14.10;71.00;;;;;;4142401;28;19914;-84
2023/07/27 00:31:17;;;;;;;;;;;14.00;70.10;;;;;;4140040;28;19924;-84
2023/07/27 00:33:23;;;;;;;;;;;13.90;70.10;;;;;;4144083;28;20066;-84
2023/07/27 00:35:34;;;;;;;;;;;14.10;70.10;;;;;;4145713;28;19925;-84
2023/07/27 00:37:35;;;;;;;;;;;14.10;69.90;;;;;;4125293;28;19924;-84
2023/07/27 00:39:36;;;;;;;;;;;14.00;69.60;;;;;;4143021;28;20576;-84
2023/07/27 00:41:39;;;;;;;;;;;14.00;69.80;;;;;;4142027;28;20398;-83
2023/07/27 00:44:06;;;;;;;;;;;14.00;69.50;;;;;;4139749;28;19972;-84
2023/07/27 00:46:10;;;;;;;;;;;14.00;69.50;;;;;;4143207;28;20291;-84
2023/07/27 00:48:16;;;;;;;;;;;13.90;70.40;;;;;;4143934;28;19917;-85
2023/07/27 00:50:17;;;;;;;;;;;13.90;70.30;;;;;;4140928;28;19925;-84
2023/07/27 00:52:25;;;;;;;;;;;13.90;70.60;;;;;;4140948;28;19921;-84
2023/07/27 00:54:38;;;;;;;;;;;13.90;70.40;;;;;;4125578;28;19914;-85
2023/07/27 00:56:39;;;;;;;;;;;13.80;70.40;;;;;;4122259;28;19921;-84
2023/07/27 00:58:41;;;;;;;;;;;13.80;69.90;;;;;;4141201;28;19918;-84
2023/07/27 01:00:42;;;;;;;;;;;13.70;70.20;;;;;;4143748;28;20024;-84
2023/07/27 01:02:52;;;;;;;;;;;13.70;69.90;;;;;;4143691;28;20422;-83
2023/07/27 01:04:52;;;;;;;;;;;13.70;71.50;;;;;;4135638;28;19917;-84
2023/07/27 01:06:53;;;;;;;;;;;13.70;71.20;;;;;;4126728;28;20370;-84
2023/07/27 01:09:01;;;;;;;;;;;13.70;71.00;;;;;;4143549;28;19918;-85
2023/07/27 01:11:10;;;;;;;;;;;13.60;71.20;;;;;;4139464;28;19921;-84
2023/07/27 01:13:34;;;;;;;;;;;13.50;70.90;;;;;;4125920;28;19914;-84
2023/07/27 01:15:37;;;;;;;;;;;13.50;70.80;;;;;;4099835;28;19952;-84
2023/07/27 01:17:58;;;;;;;;;;;13.50;70.50;;;;;;4127077;28;19913;-83
2023/07/27 01:19:59;;;;;;;;;;;13.50;70.50;;;;;;4164397;28;19917;-85
2023/07/27 01:22:22;;;;;;;;;;;13.50;70.70;;;;;;4162632;28;19940;-85
2023/07/27 01:24:34;;;;;;;;;;;13.40;71.10;;;;;;4116295;28;19965;-85
2023/07/27 01:26:54;;;;;;;;;;;13.40;71.10;;;;;;4124311;28;19934;-83
2023/07/27 01:29:12;;;;;;;;;;;13.40;71.60;;;;;;4133795;28;19906;-82
2023/07/27 01:31:19;;;;;;;;;;;13.30;71.00;;;;;;4133306;28;19917;-84
2023/07/27 01:33:36;;;;;;;;;;;13.40;71.20;;;;;;4128335;28;20045;-85
2023/07/27 01:35:48;;;;;;;;;;;13.30;71.40;;;;;;4133381;28;19914;-83
2023/07/27 01:37:51;;;;;;;;;;;13.20;71.10;;;;;;4130141;28;19914;-83
2023/07/27 01:39:55;;;;;;;;;;;13.30;70.80;;;;;;4128997;28;19981;-83
2023/07/27 01:41:56;;;;;;;;;;;13.20;71.00;;;;;;4124622;28;19958;-84
2023/07/27 01:43:57;;;;;;;;;;;13.20;71.10;;;;;;4103439;28;19923;-84
2023/07/27 01:45:58;;;;;;;;;;;13.20;70.90;;;;;;4094616;29;19915;-83
2023/07/27 01:47:59;;;;;;;;;;;13.10;71.20;;;;;;4110133;28;19933;-85
2023/07/27 01:50:00;;;;;;;;;;;13.10;71.10;;;;;;4096131;28;19970;-84
2023/07/27 01:52:01;;;;;;;;;;;13.10;71.20;;;;;;4109420;28;19918;-84
2023/07/27 01:54:04;;;;;;;;;;;13.10;71.10;;;;;;4094198;28;19969;-85
2023/07/27 01:56:09;;;;;;;;;;;13.10;71.10;;;;;;4107500;28;19920;-84
2023/07/27 01:58:13;;;;;;;;;;;13.10;72.40;;;;;;4097073;28;19919;-84
2023/07/27 02:00:14;;;;;;;;;;;13.10;72.20;;;;;;4091427;29;19929;-84
2023/07/27 02:02:15;;;;;;;;;;;13.00;72.10;;;;;;4133232;28;19918;-84
2023/07/27 02:04:15;;;;;;;;;;;13.10;72.70;;;;;;4141580;28;19921;-84
2023/07/27 02:06:33;;;;;;;;;;;13.00;72.70;;;;;;4125374;28;19926;-84
2023/07/27 02:08:42;;;;;;;;;;;13.10;72.30;;;;;;4138986;28;20020;-84
2023/07/27 02:13:43;;;;;;;;;;;13.00;72.80;;;;;;4142259;28;19936;-85
2023/07/27 02:15:46;;;;;;;;;;;13.00;72.80;;;;;;4114038;28;19957;-84
2023/07/27 02:17:49;;;;;;;;;;;13.00;72.90;;;;;;4139478;28;20472;-84
2023/07/27 02:19:51;;;;;;;;;;;13.00;72.90;;;;;;4124881;28;20380;-84
2023/07/27 02:21:53;;;;;;;;;;;12.90;73.10;;;;;;4156252;28;19921;-84
2023/07/27 02:23:57;;;;;;;;;;;12.90;72.90;;;;;;4132015;28;20012;-85
2023/07/27 02:26:25;;;;;;;;;;;12.90;73.40;;;;;;4126304;28;20344;-84
2023/07/27 02:28:30;;;;;;;;;;;12.90;73.60;;;;;;4137867;28;19917;-84
2023/07/27 02:30:31;;;;;;;;;;;13.00;73.60;;;;;;4138583;28;19999;-84
2023/07/27 02:32:34;;;;;;;;;;;12.90;73.40;;;;;;4130304;28;19957;-84
2023/07/27 02:34:34;;;;;;;;;;;12.90;73.20;;;;;;4139267;28;19953;-84
2023/07/27 02:36:35;;;;;;;;;;;12.90;73.20;;;;;;4142630;28;19921;-84
2023/07/27 02:38:38;;;;;;;;;;;13.00;73.30;;;;;;4139561;28;19936;-84
2023/07/27 02:40:40;;;;;;;;;;;12.90;72.80;;;;;;4125128;28;19918;-85
2023/07/27 02:42:46;;;;;;;;;;;12.90;72.80;;;;;;4124295;28;20021;-84
2023/07/27 02:44:56;;;;;;;;;;;12.90;73.00;;;;;;4142106;28;19913;-83
2023/07/27 02:46:57;;;;;;;;;;;12.90;72.90;;;;;;4139025;28;19917;-83
2023/07/27 02:48:57;;;;;;;;;;;13.00;72.70;;;;;;4127531;28;19922;-83
2023/07/27 02:51:02;;;;;;;;;;;13.00;72.60;;;;;;4122229;28;19917;-83
2023/07/27 02:53:04;;;;;;;;;;;12.90;72.50;;;;;;4142552;28;19921;-84
2023/07/27 02:55:08;;;;;;;;;;;13.00;72.60;;;;;;4145697;28;19920;-82
2023/07/27 02:57:08;;;;;;;;;;;12.80;72.40;;;;;;4142898;28;20429;-83
2023/07/27 02:59:09;;;;;;;;;;;12.90;72.60;;;;;;4146176;28;19928;-83
2023/07/27 03:01:09;;;;;;;;;;;12.90;73.10;;;;;;4146823;28;20012;-83
2023/07/27 03:03:30;;;;;;;;;;;12.90;72.90;;;;;;4143894;28;19914;-84
2023/07/27 03:06:00;;;;;;;;;;;12.90;72.60;;;;;;4147353;28;19917;-83
2023/07/27 03:08:26;;;;;;;;;;;12.90;72.40;;;;;;4145456;28;19924;-83
2023/07/27 03:10:50;;;;;;;;;;;13.00;72.70;;;;;;4140142;28;19921;-82
2023/07/27 03:13:14;;;;;;;;;;;12.90;72.50;;;;;;4140472;28;19949;-83
2023/07/27 03:15:41;;;;;;;;;;;12.90;72.70;;;;;;4145402;28;19921;-82
2023/07/27 03:18:02;;;;;;;;;;;13.00;72.60;;;;;;4143842;28;19924;-83
2023/07/27 03:20:22;;;;;;;;;;;12.90;72.60;;;;;;4143792;28;19922;-83
2023/07/27 03:22:23;;;;;;;;;;;12.90;72.90;;;;;;4144615;28;20000;-83
2023/07/27 03:24:26;;;;;;;;;;;12.90;73.30;;;;;;4144068;28;19968;-83
2023/07/27 03:26:30;;;;;;;;;;;13.00;73.50;;;;;;4145339;28;19917;-84
2023/07/27 03:28:30;;;;;;;;;;;12.90;73.40;;;;;;4130460;28;19984;-84
2023/07/27 03:30:31;;;;;;;;;;;12.90;73.30;;;;;;4140668;28;19918;-83
2023/07/27 03:32:32;;;;;;;;;;;13.00;73.00;;;;;;4144702;28;19918;-83
2023/07/27 03:34:33;;;;;;;;;;;13.00;72.70;;;;;;4127684;28;20368;-83
2023/07/27 03:36:33;;;;;;;;;;;13.00;73.30;;;;;;4143737;28;20034;-83
2023/07/27 03:38:35;;;;;;;;;;;13.00;73.40;;;;;;4131280;28;19993;-83
2023/07/27 03:40:44;;;;;;;;;;;13.00;73.70;;;;;;4144508;28;19952;-83
2023/07/27 03:42:44;;;;;;;;;;;13.00;73.80;;;;;;4158659;28;19917;-82
2023/07/27 03:44:45;;;;;;;;;;;13.10;73.70;;;;;;4124193;28;19933;-83
2023/07/27 03:46:46;;;;;;;;;;;13.10;74.10;;;;;;4143413;28;19921;-83
2023/07/27 03:48:50;;;;;;;;;;;13.00;73.90;;;;;;4126465;28;19933;-84
2023/07/27 03:50:51;;;;;;;;;;;13.10;74.10;;;;;;4129020;28;19913;-83
2023/07/27 03:52:56;;;;;;;;;;;13.10;74.00;;;;;;4136503;28;19914;-84
2023/07/27 03:54:59;;;;;;;;;;;13.20;73.90;;;;;;4140135;28;19918;-83
2023/07/27 03:57:00;;;;;;;;;;;13.10;73.90;;;;;;4156686;28;19913;-83
2023/07/27 03:59:00;;;;;;;;;;;13.10;74.50;;;;;;4144909;28;19921;-84
2023/07/27 04:01:04;;;;;;;;;;;13.20;74.30;;;;;;4161132;28;19985;-83
2023/07/27 04:03:05;;;;;;;;;;;13.20;74.30;;;;;;4159065;28;19901;-83
2023/07/27 04:05:05;;;;;;;;;;;13.20;74.50;;;;;;4146879;28;19928;-83
2023/07/27 04:07:06;;;;;;;;;;;13.20;74.30;;;;;;4127044;28;19921;-83
2023/07/27 04:09:10;;;;;;;;;;;13.20;74.20;;;;;;4144007;28;20267;-83
2023/07/27 04:11:13;;;;;;;;;;;13.20;74.30;;;;;;4142202;28;19933;-83
2023/07/27 04:13:34;;;;;;;;;;;13.30;74.40;;;;;;4146050;28;19917;-83
2023/07/27 04:15:53;;;;;;;;;;;13.30;74.20;;;;;;4143238;28;19921;-83
2023/07/27 04:18:13;;;;;;;;;;;13.40;74.70;;;;;;4141630;28;19918;-84
2023/07/27 04:20:34;;;;;;;;;;;13.30;74.10;;;;;;4142727;28;19925;-83
2023/07/27 04:22:55;;;;;;;;;;;13.30;74.40;;;;;;4143607;28;20000;-84
2023/07/27 04:25:15;;;;;;;;;;;13.40;74.40;;;;;;4144578;28;19945;-85
2023/07/27 04:27:36;;;;;;;;;;;13.40;74.50;;;;;;4145949;28;19913;-84
2023/07/27 04:29:56;;;;;;;;;;;13.40;74.30;;;;;;4144663;28;19995;-84
2023/07/27 04:32:17;;;;;;;;;;;13.40;74.20;;;;;;4153711;28;19918;-84
2023/07/27 04:34:37;;;;;;;;;;;13.40;74.10;;;;;;4162353;28;19926;-84
2023/07/27 04:36:58;;;;;;;;;;;13.50;74.00;;;;;;4160564;28;19937;-84
2023/07/27 04:39:24;;;;;;;;;;;13.40;73.90;;;;;;4150984;28;20008;-84
2023/07/27 04:41:34;;;;;;;;;;;13.40;74.10;;;;;;4141919;28;20008;-84
2023/07/27 04:43:37;;;;;;;;;;;13.40;74.00;;;;;;4147361;28;19918;-84
2023/07/27 04:45:38;;;;;;;;;;;13.40;73.80;;;;;;4143533;28;20470;-84
2023/07/27 04:47:39;;;;;;;;;;;13.50;73.60;;;;;;4143039;28;19964;-84
2023/07/27 04:49:39;;;;;;;;;;;13.50;73.90;;;;;;4141578;28;19917;-84
2023/07/27 04:51:45;;;;;;;;;;;13.50;73.40;;;;;;4129627;28;19968;-84
2023/07/27 04:53:46;;;;;;;;;;;13.40;73.20;;;;;;4133599;28;20004;-85
2023/07/27 04:55:55;;;;;;;;;;;13.40;73.10;;;;;;4145377;28;19917;-84
2023/07/27 04:57:59;;;;;;;;;;;13.50;72.90;;;;;;4140551;28;19929;-84
2023/07/27 05:00:05;;;;;;;;;;;13.50;72.70;;;;;;4138306;28;20449;-84
2023/07/27 05:02:07;;;;;;;;;;;13.50;72.80;;;;;;4143429;28;19917;-84
2023/07/27 05:04:12;;;;;;;;;;;13.50;73.00;;;;;;4138790;28;20606;-83
2023/07/27 05:06:25;;;;;;;;;;;13.60;73.20;;;;;;4138739;28;19943;-84
2023/07/27 05:08:29;;;;;;;;;;;13.60;74.30;;;;;;4138594;28;19944;-84
2023/07/27 05:10:31;;;;;;;;;;;13.70;74.60;;;;;;4125185;28;19921;-84
2023/07/27 05:12:37;;;;;;;;;;;13.70;74.60;;;;;;4125946;28;20104;-84
2023/07/27 05:14:42;;;;;;;;;;;13.80;74.80;;;;;;4137985;28;19933;-84
2023/07/27 05:16:51;;;;;;;;;;;13.90;74.60;;;;;;4123427;28;19995;-83
2023/07/27 05:19:08;;;;;;;;;;;13.90;74.60;;;;;;4128781;28;19910;-84
2023/07/27 05:21:08;;;;;;;;;;;13.90;74.40;;;;;;4128586;28;20269;-85
2023/07/27 05:23:12;;;;;;;;;;;14.00;74.20;;;;;;4124940;28;19985;-84
2023/07/27 05:25:16;;;;;;;;;;;14.00;75.50;;;;;;4125746;28;19922;-85
2023/07/27 05:29:41;;;;;;;;;;;14.10;74.90;;;;;;4140362;28;20011;-85
2023/07/27 05:32:00;;;;;;;;;;;14.00;74.40;;;;;;4124283;28;20008;-85
2023/07/27 05:34:08;;;;;;;;;;;14.20;74.20;;;;;;4139209;28;19914;-84
2023/07/27 05:36:09;;;;;;;;;;;14.20;74.10;;;;;;4155001;28;20047;-84
2023/07/27 05:38:09;;;;;;;;;;;14.20;75.20;;;;;;4139567;28;19917;-84
2023/07/27 05:40:16;;;;;;;;;;;14.20;74.70;;;;;;4139774;28;19918;-84
2023/07/27 05:42:17;;;;;;;;;;;14.40;74.80;;;;;;4139903;28;19925;-84
2023/07/27 05:44:17;;;;;;;;;;;14.20;73.90;;;;;;4121534;28;19914;-85
2023/07/27 05:46:18;;;;;;;;;;;14.40;73.80;;;;;;4143990;28;19918;-85
2023/07/27 05:48:21;;;;;;;;;;;14.40;73.50;;;;;;4136335;28;19922;-85
2023/07/27 05:50:24;;;;;;;;;;;14.40;73.30;;;;;;4140601;28;19913;-85
2023/07/27 05:52:25;;;;;;;;;;;14.50;73.30;;;;;;4127510;28;19937;-84
2023/07/27 05:54:26;;;;;;;;;;;14.60;73.00;;;;;;4140985;28;19914;-85
2023/07/27 05:56:27;;;;;;;;;;;14.50;73.30;;;;;;4141988;28;19926;-84
2023/07/27 05:58:27;;;;;;;;;;;14.60;73.70;;;;;;4141333;28;21256;-84
2023/07/27 06:00:28;;;;;;;;;;;14.70;73.70;;;;;;4142436;28;20312;-85
2023/07/27 06:02:28;;;;;;;;;;;14.70;74.20;;;;;;4142361;28;19913;-84
2023/07/27 06:04:29;;;;;;;;;;;14.80;74.40;;;;;;4125128;28;19926;-85
2023/07/27 06:06:29;;;;;;;;;;;14.90;74.80;;;;;;4139629;28;19968;-83
2023/07/27 06:08:30;;;;;;;;;;;14.90;75.10;;;;;;4142297;28;20394;-84
2023/07/27 06:10:31;;;;;;;;;;;15.00;75.00;;;;;;4135554;28;19913;-84
2023/07/27 06:12:32;;;;;;;;;;;15.10;76.00;;;;;;4138033;28;19972;-84
2023/07/27 06:14:33;;;;;;;;;;;15.10;77.00;;;;;;4141601;28;19918;-84
2023/07/27 06:16:33;;;;;;;;;;;15.30;76.80;;;;;;4139572;28;19914;-84
2023/07/27 06:18:34;;;;;;;;;;;15.30;76.50;;;;;;4142336;28;19933;-85
2023/07/27 06:20:35;;;;;;;;;;;15.50;76.90;;;;;;4140619;28;19917;-84
2023/07/27 06:22:35;;;;;;;;;;;15.60;76.20;;;;;;4140845;28;19937;-85
2023/07/27 06:24:36;;;;;;;;;;;15.60;76.70;;;;;;4141866;28;19914;-84
2023/07/27 06:26:36;;;;;;;;;;;15.60;76.60;;;;;;4140952;28;19921;-84
2023/07/27 06:28:37;;;;;;;;;;;15.70;76.70;;;;;;4143903;28;19964;-84
2023/07/27 06:30:38;;;;;;;;;;;15.80;76.00;;;;;;4143767;28;19917;-84
2023/07/27 06:32:39;;;;;;;;;;;15.80;75.80;;;;;;4144367;28;20007;-85
2023/07/27 06:34:39;;;;;;;;;;;15.90;76.20;;;;;;4144199;28;20375;-85
2023/07/27 06:36:41;;;;;;;;;;;16.00;75.40;;;;;;4156539;28;19913;-84
2023/07/27 06:39:01;;;;;;;;;;;16.00;75.90;;;;;;4142580;28;19918;-85
2023/07/27 06:41:25;;;;;;;;;;;16.10;76.30;;;;;;4148345;28;19925;-87
2023/07/27 06:43:26;;;;;;;;;;;16.20;76.60;;;;;;4162588;28;19925;-85
2023/07/27 06:45:47;;;;;;;;;;;16.30;76.80;;;;;;4148927;28;19917;-85
2023/07/27 06:48:08;;;;;;;;;;;16.30;76.20;;;;;;4144089;28;22197;-86
2023/07/27 06:50:28;;;;;;;;;;;16.40;76.90;;;;;;4140013;28;19924;-84
2023/07/27 06:52:49;;;;;;;;;;;16.50;76.50;;;;;;4145559;28;19914;-85
2023/07/27 06:55:10;;;;;;;;;;;16.60;76.10;;;;;;4141693;28;19952;-85
2023/07/27 06:57:31;;;;;;;;;;;16.70;76.20;;;;;;4144809;28;19925;-85
2023/07/27 06:59:51;;;;;;;;;;;16.90;75.80;;;;;;4143991;28;19921;-86
2023/07/27 07:02:12;;;;;;;;;;;16.90;75.60;;;;;;4144085;28;20017;-84
2023/07/27 07:04:32;;;;;;;;;;;17.00;75.00;;;;;;4143526;28;19913;-85
2023/07/27 07:06:33;;;;;;;;;;;17.10;74.30;;;;;;4146077;28;19920;-85
2023/07/27 07:08:54;;;;;;;;;;;17.20;74.10;;;;;;4145016;28;19921;-85
2023/07/27 07:11:14;;;;;;;;;;;17.20;74.10;;;;;;4141813;28;19913;-85
2023/07/27 07:13:35;;;;;;;;;;;17.40;73.70;;;;;;4142673;28;20012;-86
2023/07/27 07:15:55;;;;;;;;;;;17.40;74.00;;;;;;4140938;28;20355;-84
2023/07/27 07:18:16;;;;;;;;;;;17.50;73.90;;;;;;4143679;28;19920;-86
2023/07/27 07:20:36;;;;;;;;;;;17.50;73.20;;;;;;4141324;28;20376;-85
2023/07/27 07:22:57;;;;;;;;;;;17.70;72.90;;;;;;4141610;28;19921;-86
2023/07/27 07:24:59;;;;;;;;;;;17.80;72.30;;;;;;4126416;28;19936;-85
2023/07/27 07:27:19;;;;;;;;;;;17.80;72.20;;;;;;4144793;28;20294;-86
2023/07/27 07:29:40;;;;;;;;;;;17.90;72.00;;;;;;4142892;28;19959;-86
2023/07/27 07:32:01;;;;;;;;;;;17.90;71.70;;;;;;4143522;28;19917;-85
2023/07/27 07:34:21;;;;;;;;;;;18.00;71.50;;;;;;4145800;28;20410;-85
2023/07/27 07:36:43;;;;;;;;;;;18.10;71.40;;;;;;4142324;28;19988;-85
2023/07/27 07:39:04;;;;;;;;;;;18.20;71.40;;;;;;4142569;28;19921;-85
2023/07/27 07:41:24;;;;;;;;;;;18.30;70.70;;;;;;4144016;28;19917;-84
2023/07/27 07:43:25;;;;;;;;;;;18.40;70.20;;;;;;4141334;28;19924;-85
2023/07/27 07:45:45;;;;;;;;;;;18.50;70.10;;;;;;4139633;28;19924;-85
2023/07/27 07:48:06;;;;;;;;;;;18.60;70.00;;;;;;4139888;28;19918;-85
2023/07/27 07:50:26;;;;;;;;;;;18.60;69.80;;;;;;4139873;28;19959;-85
2023/07/27 07:52:47;;;;;;;;;;;18.80;69.80;;;;;;4142822;28;20067;-85
2023/07/27 07:55:08;;;;;;;;;;;18.80;69.70;;;;;;4143128;28;19924;-85
2023/07/27 07:57:28;;;;;;;;;;;18.90;69.70;;;;;;4141394;28;19913;-86
2023/07/27 07:59:49;;;;;;;;;;;18.90;68.80;;;;;;4143335;28;19952;-85
2023/07/27 08:02:09;;;;;;;;;;;19.10;69.00;;;;;;4139894;28;20403;-84
2023/07/27 08:04:30;;;;;;;;;;;19.10;69.10;;;;;;4141711;28;19964;-84
2023/07/27 08:06:51;;;;;;;;;;;19.30;68.90;;;;;;4141224;28;19944;-85
2023/07/27 08:09:12;;;;;;;;;;;19.40;68.80;;;;;;4142957;28;19967;-86
2023/07/27 08:11:33;;;;;;;;;;;19.40;65.50;;;;;;4139930;28;19960;-86
2023/07/27 08:13:55;;;;;;;;;;;19.50;62.80;;;;;;4140890;28;20564;-85
2023/07/27 08:16:15;;;;;;;;;;;19.60;65.10;;;;;;4137354;28;19917;-85
2023/07/27 08:18:36;;;;;;;;;;;19.70;63.80;;;;;;4142055;28;19995;-85
2023/07/27 08:21:00;;;;;;;;;;;19.70;63.00;;;;;;4142869;28;20381;-84
2023/07/27 08:23:21;;;;;;;;;;;19.70;63.50;;;;;;4137888;28;19921;-86
2023/07/27 08:25:42;;;;;;;;;;;19.80;61.70;;;;;;4136698;28;19913;-86
2023/07/27 08:28:03;;;;;;;;;;;19.80;63.20;;;;;;4138579;28;19975;-86
2023/07/27 08:30:23;;;;;;;;;;;19.90;63.60;;;;;;4141892;28;19922;-85
2023/07/27 08:32:45;;;;;;;;;;;19.90;63.80;;;;;;4140240;28;20318;-86
2023/07/27 08:35:06;;;;;;;;;;;20.00;63.60;;;;;;4139853;28;20371;-86
2023/07/27 08:37:27;;;;;;;;;;;20.00;63.90;;;;;;4140744;28;20006;-85
2023/07/27 08:39:48;;;;;;;;;;;20.10;63.60;;;;;;4138466;28;19921;-86
2023/07/27 08:42:09;;;;;;;;;;;20.10;63.40;;;;;;4143075;28;19918;-85
2023/07/27 08:44:29;;;;;;;;;;;20.20;62.10;;;;;;4143114;28;19913;-86
2023/07/27 08:46:50;;;;;;;;;;;20.20;61.60;;;;;;4141928;28;20376;-85
2023/07/27 08:49:13;;;;;;;;;;;20.20;59.70;;;;;;4155081;28;19962;-86
2023/07/27 08:51:34;;;;;;;;;;;20.20;59.40;;;;;;4141716;28;19926;-85
2023/07/27 08:53:55;;;;;;;;;;;20.20;59.20;;;;;;4139967;28;20454;-85
2023/07/27 08:56:16;;;;;;;;;;;20.30;60.60;;;;;;4140419;28;20554;-86
2023/07/27 08:58:36;;;;;;;;;;;20.40;60.80;;;;;;4141613;28;19917;-84
2023/07/27 09:00:57;;;;;;;;;;;20.30;60.70;;;;;;4140410;28;20415;-85
2023/07/27 09:03:17;;;;;;;;;;;20.40;59.60;;;;;;4140143;28;19967;-86
2023/07/27 09:05:41;;;;;;;;;;;20.40;60.80;;;;;;4141095;28;20398;-86
2023/07/27 09:08:09;;;;;;;;;;;20.40;60.40;;;;;;4139462;28;20474;-86
2023/07/27 09:10:33;;;;;;;;;;;20.50;61.00;;;;;;4140976;28;20612;-86
2023/07/27 09:12:58;;;;;;;;;;;20.60;60.90;;;;;;4140672;28;19940;-85
2023/07/27 09:15:17;;;;;;;;;;;20.60;61.10;;;;;;4140655;28;19960;-85
2023/07/27 09:17:37;;;;;;;;;;;20.70;61.20;;;;;;4138714;28;19929;-85
2023/07/27 09:19:58;;;;;;;;;;;20.70;61.20;;;;;;4139068;28;19941;-86
2023/07/27 09:22:17;;;;;;;;;;;20.70;60.70;;;;;;4140237;28;19964;-85
2023/07/27 09:24:37;;;;;;;;;;;20.80;59.70;;;;;;4140639;28;19989;-85
2023/07/27 09:26:56;;;;;;;;;;;20.90;58.80;;;;;;4141335;28;19968;-86
2023/07/27 09:29:16;;;;;;;;;;;20.90;59.20;;;;;;4137767;28;20013;-85
2023/07/27 09:31:42;;;;;;;;;;;21.00;58.40;;;;;;4141515;28;19960;-84
2023/07/27 09:34:04;;;;;;;;;;;21.00;59.30;;;;;;4138646;28;20342;-85
2023/07/27 09:36:23;;;;;;;;;;;21.00;58.60;;;;;;4141130;28;19956;-86
2023/07/27 09:38:42;;;;;;;;;;;21.10;57.60;;;;;;4140925;28;19929;-86
2023/07/27 09:41:08;;;;;;;;;;;21.10;58.40;;;;;;4140498;28;19925;-85
2023/07/27 09:43:27;;;;;;;;;;;21.20;57.50;;;;;;4144111;28;20370;-85
2023/07/27 09:45:47;;;;;;;;;;;21.20;56.10;;;;;;4150403;28;20278;-86
2023/07/27 09:48:07;;;;;;;;;;;21.30;55.00;;;;;;4160887;28;19981;-86
2023/07/27 09:50:26;;;;;;;;;;;21.30;55.80;;;;;;4148210;28;19960;-86
2023/07/27 09:52:46;;;;;;;;;;;21.30;52.70;;;;;;4141767;28;20011;-88
2023/07/27 09:55:06;;;;;;;;;;;21.40;54.90;;;;;;4144026;28;19916;-85
2023/07/27 09:57:26;;;;;;;;;;;21.40;55.60;;;;;;4141345;28;19928;-86
2023/07/27 09:59:46;;;;;;;;;;;21.50;54.40;;;;;;4139799;28;19979;-86
2023/07/27 10:02:05;;;;;;;;;;;21.50;55.60;;;;;;4138648;28;19928;-86
2023/07/27 10:04:24;;;;;;;;;;;21.60;56.10;;;;;;4139412;28;19949;-87
2023/07/27 10:06:44;;;;;;;;;;;21.60;54.90;;;;;;4140878;28;19964;-86
2023/07/27 10:09:15;;;;;;;;;;;21.70;55.40;;;;;;4142114;28;20011;-86
2023/07/27 10:11:54;;;;;;;;;;;21.70;54.50;;;;;;4139355;28;19956;-86
2023/07/27 10:14:17;;;;;;;;;;;21.80;54.60;;;;;;4138978;28;19925;-86
2023/07/27 10:16:38;;;;;;;;;;;21.90;55.60;;;;;;4140590;28;19960;-86
2023/07/27 10:18:58;;;;;;;;;;;22.00;55.40;;;;;;4139530;28;19924;-85
2023/07/27 10:21:21;;;;;;;;;;;22.00;54.30;;;;;;4138891;28;20673;-86
2023/07/27 10:23:51;;;;;;;;;;;22.10;54.20;;;;;;4137965;28;19920;-84
2023/07/27 10:26:10;;;;;;;;;;;22.10;53.80;;;;;;4136804;28;19920;-87
2023/07/27 10:28:47;;;;;;;;;;;22.20;53.70;;;;;;4139217;28;20530;-86
2023/07/27 10:31:26;;;;;;;;;;;22.30;54.90;;;;;;4139872;28;19979;-86
2023/07/27 10:33:46;;;;;;;;;;;22.40;55.20;;;;;;4140279;28;19924;-86
2023/07/27 10:36:06;;;;;;;;;;;22.50;55.40;;;;;;4146111;28;19920;-84
2023/07/27 10:38:25;;;;;;;;;;;22.50;54.60;;;;;;4136709;28;19921;-86
2023/07/27 10:40:45;;;;;;;;;;;22.60;54.10;;;;;;4141061;28;19972;-86
2023/07/27 10:43:04;;;;;;;;;;;22.70;54.80;;;;;;4140448;28;20445;-85
2023/07/27 10:45:24;;;;;;;;;;;22.80;54.50;;;;;;4137687;28;19924;-86
2023/07/27 10:47:49;;;;;;;;;;;22.80;54.90;;;;;;4139910;28;19968;-86
2023/07/27 10:50:09;;;;;;;;;;;22.90;54.00;;;;;;4138566;28;19924;-86
2023/07/27 10:52:29;;;;;;;;;;;23.00;52.50;;;;;;4139285;28;20397;-85
2023/07/27 10:54:49;;;;;;;;;;;23.10;51.80;;;;;;4142346;28;20012;-86
2023/07/27 10:57:09;;;;;;;;;;;23.20;49.80;;;;;;4137419;28;19959;-86
2023/07/27 10:59:28;;;;;;;;;;;23.20;52.40;;;;;;4138779;28;19950;-86
2023/07/27 11:01:48;;;;;;;;;;;23.30;49.40;;;;;;4135292;28;20481;-87
2023/07/27 11:04:08;;;;;;;;;;;23.40;51.30;;;;;;4140655;28;20005;-86
2023/07/27 11:06:28;;;;;;;;;;;23.40;50.80;;;;;;4141884;28;19928;-86
2023/07/27 11:08:47;;;;;;;;;;;23.50;47.90;;;;;;4140323;28;19928;-86
2023/07/27 11:11:13;;;;;;;;;;;23.50;46.90;;;;;;4137384;28;19920;-86
2023/07/27 11:13:32;;;;;;;;;;;23.50;48.00;;;;;;4141944;28;20067;-86
2023/07/27 11:15:54;;;;;;;;;;;23.50;49.30;;;;;;4143617;28;20467;-86
2023/07/27 11:18:19;;;;;;;;;;;23.50;50.20;;;;;;4140998;28;19929;-86
2023/07/27 11:20:41;;;;;;;;;;;23.50;49.80;;;;;;4144396;28;19925;-86
2023/07/27 11:23:00;;;;;;;;;;;23.60;49.80;;;;;;4158121;28;20318;-87
2023/07/27 11:25:19;;;;;;;;;;;23.60;50.50;;;;;;4141523;28;19967;-85
2023/07/27 11:27:38;;;;;;;;;;;23.60;49.20;;;;;;4143250;28;19924;-85
2023/07/27 11:30:01;;;;;;;;;;;23.60;48.00;;;;;;4143741;28;19924;-87
2023/07/27 11:32:24;;;;;;;;;;;23.60;45.00;;;;;;4143437;28;19921;-86
2023/07/27 11:34:43;;;;;;;;;;;23.60;46.80;;;;;;4140721;28;20060;-85
2023/07/27 11:37:03;;;;;;;;;;;23.60;46.00;;;;;;4140793;28;19924;-86
2023/07/27 11:39:22;;;;;;;;;;;23.60;47.30;;;;;;4142168;28;19929;-86
2023/07/27 11:41:41;;;;;;;;;;;23.60;48.00;;;;;;4144323;28;19963;-86
2023/07/27 11:44:00;;;;;;;;;;;23.60;47.30;;;;;;4144694;28;19990;-86
2023/07/27 11:46:20;;;;;;;;;;;23.60;47.50;;;;;;4142988;28;19993;-86
2023/07/27 11:48:40;;;;;;;;;;;23.60;45.80;;;;;;4145131;28;19979;-86
2023/07/27 11:51:00;;;;;;;;;;;23.60;46.70;;;;;;4144208;28;20076;-86
2023/07/27 11:53:21;;;;;;;;;;;23.60;44.40;;;;;;4140466;28;19924;-84
2023/07/27 11:55:40;;;;;;;;;;;23.60;45.70;;;;;;4146340;28;20444;-86
2023/07/27 11:58:00;;;;;;;;;;;23.60;47.40;;;;;;4155342;28;19972;-86
2023/07/27 12:00:19;;;;;;;;;;;23.60;45.70;;;;;;4142136;28;19924;-85
2023/07/27 12:02:38;;;;;;;;;;;23.60;46.50;;;;;;4140876;28;19964;-86
2023/07/27 12:04:59;;;;;;;;;;;23.60;47.20;;;;;;4142466;28;19924;-86
2023/07/27 12:07:18;;;;;;;;;;;23.60;45.30;;;;;;4143164;28;19919;-86
2023/07/27 12:09:37;;;;;;;;;;;23.70;46.30;;;;;;4145722;28;19929;-85
2023/07/27 12:11:57;;;;;;;;;;;23.70;46.90;;;;;;4144734;28;20361;-86
2023/07/27 12:14:18;;;;;;;;;;;23.70;46.20;;;;;;4144552;28;19960;-86
2023/07/27 12:16:43;;;;;;;;;;;23.80;47.80;;;;;;4141823;28;19964;-86
2023/07/27 12:19:02;;;;;;;;;;;23.80;46.60;;;;;;4142944;28;19972;-85
2023/07/27 12:21:21;;;;;;;;;;;23.90;48.00;;;;;;4141752;28;19936;-87
2023/07/27 12:23:40;;;;;;;;;;;24.00;47.30;;;;;;4140613;28;20013;-86
2023/07/27 12:26:00;;;;;;;;;;;24.00;47.00;;;;;;4140799;28;20410;-85
2023/07/27 12:28:19;;;;;;;;;;;24.00;44.90;;;;;;4138265;28;20386;-85
2023/07/27 12:30:38;;;;;;;;;;;24.00;44.50;;;;;;4147314;28;19920;-87
2023/07/27 12:32:57;;;;;;;;;;;24.00;44.80;;;;;;4144817;28;19964;-85
2023/07/27 12:35:17;;;;;;;;;;;24.00;44.90;;;;;;4139416;28;20177;-87
2023/07/27 12:37:36;;;;;;;;;;;24.00;45.00;;;;;;4145481;28;20023;-85
2023/07/27 12:39:55;;;;;;;;;;;23.90;45.50;;;;;;4143064;28;19921;-85
2023/07/27 12:42:14;;;;;;;;;;;23.90;46.50;;;;;;4154966;28;19923;-85
2023/07/27 12:44:33;;;;;;;;;;;23.90;45.80;;;;;;4142185;28;19928;-86
2023/07/27 12:46:52;;;;;;;;;;;23.90;46.00;;;;;;4140444;28;20016;-86
2023/07/27 12:49:12;;;;;;;;;;;23.90;45.00;;;;;;4146068;28;19916;-85
2023/07/27 12:51:31;;;;;;;;;;;23.90;46.20;;;;;;4143449;28;19924;-85
2023/07/27 12:53:50;;;;;;;;;;;23.90;46.50;;;;;;4143764;28;19925;-86
2023/07/27 12:56:11;;;;;;;;;;;24.00;46.70;;;;;;4141409;28;20366;-86